createdAt,value
2024-05-09T00:02:08.836Z,100225.41
2024-05-09T00:04:36.004Z,100226.53
2024-05-09T00:07:02.858Z,100213.84
2024-05-09T00:09:29.556Z,100220.63
2024-05-09T00:11:56.343Z,100227.66
2024-05-09T00:14:23.088Z,100214.00
2024-05-09T00:16:49.988Z,100213.28
2024-05-09T00:19:16.817Z,100207.94
2024-05-09T00:21:44.090Z,100213.84
2024-05-09T00:24:10.994Z,100216.97
2024-05-09T00:26:37.803Z,100219.34
2024-05-09T00:29:04.554Z,100217.38
2024-05-09T00:31:31.220Z,100220.75
2024-05-09T00:33:58.067Z,100209.53
2024-05-09T00:36:24.744Z,100213.03
2024-05-09T00:38:51.414Z,100211.91
2024-05-09T00:41:19.859Z,100208.84
2024-05-09T00:43:46.803Z,100213.34
2024-05-09T00:46:13.867Z,100207.16
2024-05-09T00:48:40.746Z,100209.97
2024-05-09T00:51:07.880Z,100213.59
2024-05-09T00:53:35.023Z,100211.66
2024-05-09T00:56:01.968Z,100215.16
2024-05-09T00:58:30.568Z,100219.66
2024-05-09T01:01:00.199Z,100220.91
2024-05-09T01:03:27.613Z,100216.69
2024-05-09T01:05:54.766Z,100212.59
2024-05-09T01:08:21.782Z,100215.72
2024-05-09T01:10:48.888Z,100214.47
2024-05-09T01:13:15.810Z,100215.72
2024-05-09T01:15:43.316Z,100216.97
2024-05-09T01:18:12.463Z,100215.84
2024-05-09T01:20:43.269Z,100211.06
2024-05-09T01:23:14.377Z,100213.88
2024-05-09T01:25:42.846Z,100210.53
2024-05-09T01:28:09.664Z,100206.03
2024-05-09T01:30:37.860Z,100213.19
2024-05-09T01:33:07.768Z,100203.63
2024-05-09T01:35:36.581Z,100209.25
2024-05-09T01:38:03.736Z,100204.88
2024-05-09T01:40:37.274Z,100202.34
2024-05-09T01:43:07.182Z,100201.25
2024-05-09T01:45:33.999Z,100203.47
2024-05-09T01:48:01.453Z,100200.41
2024-05-09T01:50:37.981Z,100199.84
2024-05-09T01:53:09.541Z,100214.31
2024-05-09T01:55:36.454Z,100208.00
2024-05-09T01:58:03.209Z,100210.22
2024-05-09T02:00:38.651Z,100217.81
2024-05-09T02:03:11.262Z,100204.59
2024-05-09T02:05:40.399Z,100206.69
2024-05-09T02:08:07.415Z,100204.84
2024-05-09T02:10:34.171Z,100200.19
2024-05-09T02:13:01.163Z,100208.06
2024-05-09T02:15:27.984Z,100211.00
2024-05-09T02:17:54.746Z,100213.25
2024-05-09T02:22:51.203Z,100206.25
2024-05-09T02:25:19.063Z,100209.91
2024-05-09T02:27:45.735Z,100209.91
2024-05-09T02:30:18.644Z,100202.44
2024-05-09T02:32:52.961Z,100210.31
2024-05-09T02:35:19.728Z,100204.53
2024-05-09T02:37:46.471Z,100210.13
2024-05-09T02:40:15.002Z,100213.75
2024-05-09T02:42:44.967Z,100210.09
2024-05-09T02:45:11.642Z,100211.81
2024-05-09T02:47:38.473Z,100212.34
2024-05-09T02:50:07.789Z,100210.50
2024-05-09T02:52:34.635Z,100207.00
2024-05-09T02:55:01.309Z,100214.56
2024-05-09T02:57:27.990Z,100215.13
2024-05-09T02:59:54.764Z,100204.97
2024-05-09T03:02:21.513Z,100207.66
2024-05-09T03:04:48.366Z,100208.34
2024-05-09T03:07:15.045Z,100206.06
2024-05-09T03:09:46.901Z,100208.16
2024-05-09T03:12:13.768Z,100206.00
2024-05-09T03:14:40.477Z,100206.56
2024-05-09T03:17:07.882Z,100222.91
2024-05-09T03:19:37.783Z,100217.56
2024-05-09T03:22:04.840Z,100216.44
2024-05-09T03:24:31.401Z,100211.94
2024-05-09T03:26:58.060Z,100214.59
2024-05-09T03:29:25.031Z,100211.53
2024-05-09T03:31:52.146Z,100205.88
2024-05-09T03:34:18.961Z,100213.31
2024-05-09T03:36:45.733Z,100215.84
2024-05-09T03:39:12.463Z,100212.19
2024-05-09T03:41:39.342Z,100218.06
2024-05-09T03:44:06.094Z,100216.97
2024-05-09T03:46:37.855Z,100212.47
2024-05-09T03:49:04.985Z,100219.78
2024-05-09T03:51:31.820Z,100213.56
2024-05-09T03:53:58.635Z,100216.81
2024-05-09T03:56:25.531Z,100216.66
2024-05-09T03:58:52.267Z,100222.56
2024-05-09T04:01:19.161Z,100220.63
2024-05-09T04:03:46.114Z,100215.13
2024-05-09T04:06:20.318Z,100224.53
2024-05-09T04:08:47.001Z,100215.53
2024-05-09T04:11:13.889Z,100223.94
2024-05-09T04:13:40.633Z,100220.41
2024-05-09T04:16:10.433Z,100221.97
2024-05-09T04:18:37.711Z,100231.50
2024-05-09T04:21:05.207Z,100232.06
2024-05-09T04:23:32.082Z,100237.09
2024-05-09T04:25:58.785Z,100234.56
2024-05-09T04:28:26.243Z,100240.78
2024-05-09T04:30:52.905Z,100246.69
2024-05-09T04:33:20.855Z,100247.06
2024-05-09T04:35:49.515Z,100247.06
2024-05-09T04:38:16.398Z,100250.75
2024-05-09T04:40:43.556Z,100250.34
2024-05-09T04:43:19.667Z,100256.53
2024-05-09T04:45:46.545Z,100252.03
2024-05-09T04:48:13.576Z,100260.22
2024-05-09T04:50:40.542Z,100252.56
2024-05-09T04:53:10.070Z,100262.44
2024-05-09T04:55:38.276Z,100261.31
2024-05-09T04:58:08.552Z,100259.28
2024-05-09T05:00:37.513Z,100257.03
2024-05-09T05:03:07.920Z,100262.38
2024-05-09T05:05:40.427Z,100262.78
2024-05-09T05:08:18.434Z,100271.19
2024-05-09T05:10:47.167Z,100269.88
2024-05-09T05:13:23.743Z,100272.94
2024-05-09T05:15:58.310Z,100264.47
2024-05-09T05:18:27.258Z,100274.34
2024-05-09T05:20:56.011Z,100276.31
2024-05-09T05:23:23.508Z,100272.34
2024-05-09T05:25:52.807Z,100281.59
2024-05-09T05:28:20.018Z,100274.63
2024-05-09T05:30:46.870Z,100272.53
2024-05-09T05:33:14.562Z,100275.13
2024-05-09T05:35:42.064Z,100281.03
2024-05-09T05:38:09.820Z,100289.00
2024-05-09T05:40:38.681Z,100285.41
2024-05-09T05:43:10.746Z,100290.44
2024-05-09T05:45:38.256Z,100290.31
2024-05-09T05:48:06.969Z,100297.59
2024-05-09T05:50:37.283Z,100303.66
2024-05-09T05:53:10.204Z,100298.13
2024-05-09T05:55:41.221Z,100303.69
2024-05-09T05:58:12.226Z,100306.00
2024-05-09T06:00:40.996Z,100297.28
2024-05-09T06:03:09.969Z,100300.28
2024-05-09T06:05:40.045Z,100304.03
2024-05-09T06:08:07.537Z,100305.06
2024-05-09T06:10:38.518Z,100309.81
2024-05-09T06:13:07.834Z,100314.13
2024-05-09T06:15:34.612Z,100314.75
2024-05-09T06:18:01.862Z,100309.94
2024-05-09T06:20:35.596Z,100313.56
2024-05-09T06:23:08.512Z,100313.78
2024-05-09T06:25:36.305Z,100307.81
2024-05-09T06:28:03.619Z,100320.13
2024-05-09T06:30:38.401Z,100312.41
2024-05-09T06:33:10.140Z,100315.94
2024-05-09T06:35:38.300Z,100312.69
2024-05-09T06:38:06.087Z,100314.34
2024-05-09T06:40:37.578Z,100316.06
2024-05-09T06:43:17.925Z,100325.50
2024-05-09T06:45:49.963Z,100327.22
2024-05-09T06:48:20.734Z,100331.25
2024-05-09T06:50:48.228Z,100338.13
2024-05-09T06:53:15.947Z,100326.72
2024-05-09T06:55:43.346Z,100330.56
2024-05-09T06:58:10.150Z,100328.22
2024-05-09T07:00:39.910Z,100329.16
2024-05-09T07:03:14.917Z,100330.78
2024-05-09T07:05:44.013Z,100330.16
2024-05-09T07:08:11.490Z,100333.66
2024-05-09T07:10:38.576Z,100338.72
2024-05-09T07:13:13.285Z,100340.72
2024-05-09T07:15:41.213Z,100343.03
2024-05-09T07:18:17.800Z,100349.41
2024-05-09T07:20:46.890Z,100345.88
2024-05-09T07:23:14.273Z,100339.03
2024-05-09T07:25:41.851Z,100340.22
2024-05-09T07:28:14.904Z,100342.09
2024-05-09T07:30:42.200Z,100339.78
2024-05-09T07:33:09.141Z,100338.81
2024-05-09T07:35:36.119Z,100338.06
2024-05-09T07:38:03.070Z,100328.00
2024-05-09T07:40:35.797Z,100338.41
2024-05-09T07:43:14.454Z,100328.53
2024-05-09T07:45:50.691Z,100326.88
2024-05-09T07:53:38.956Z,100328.31
2024-05-09T07:56:09.381Z,100329.13
2024-05-09T07:58:36.854Z,100327.09
2024-05-09T08:01:03.664Z,100334.13
2024-05-09T08:03:31.644Z,100333.41
2024-05-09T08:05:58.357Z,100337.47
2024-05-09T08:08:24.964Z,100334.47
2024-05-09T08:10:51.763Z,100335.81
2024-05-09T08:13:18.729Z,100339.88
2024-05-09T08:15:45.912Z,100336.88
2024-05-09T08:18:12.906Z,100340.75
2024-05-09T08:20:41.493Z,100340.94
2024-05-09T08:23:08.830Z,100343.66
2024-05-09T08:25:35.620Z,100343.28
2024-05-09T08:28:04.777Z,100333.88
2024-05-09T08:30:36.748Z,100337.09
2024-05-09T08:33:06.493Z,100339.28
2024-05-09T08:35:34.442Z,100349.38
2024-05-09T08:38:05.549Z,100342.31
2024-05-09T08:40:35.914Z,100337.06
2024-05-09T08:43:07.961Z,100337.72
2024-05-09T08:45:35.968Z,100342.56
2024-05-09T08:48:07.768Z,100336.25
2024-05-09T08:50:39.177Z,100339.78
2024-05-09T09:04:38.853Z,100324.91
2024-05-09T09:07:06.629Z,100328.28
2024-05-09T09:09:34.564Z,100320.06
2024-05-09T09:12:01.388Z,100325.28
2024-05-09T09:14:28.133Z,100318.50
2024-05-09T09:16:56.561Z,100323.53
2024-05-09T09:19:23.579Z,100321.88
2024-05-09T09:21:50.420Z,100314.09
2024-05-09T09:24:17.009Z,100313.09
2024-05-09T09:26:45.330Z,100309.34
2024-05-09T09:29:12.107Z,100309.56
2024-05-09T09:31:41.488Z,100304.94
2024-05-09T09:34:08.929Z,100316.72
2024-05-09T09:36:38.587Z,100312.00
2024-05-09T09:39:06.722Z,100307.22
2024-05-09T09:41:35.356Z,100303.47
2024-05-09T09:44:04.174Z,100304.72
2024-05-09T09:46:31.967Z,100308.13
2024-05-09T09:48:58.918Z,100302.41
2024-05-09T09:51:26.438Z,100302.00
2024-05-09T09:53:53.553Z,100305.47
2024-05-09T09:56:21.491Z,100311.44
2024-05-09T09:58:48.909Z,100311.94
2024-05-09T10:01:15.800Z,100300.03
2024-05-09T10:03:42.773Z,100303.34
2024-05-09T10:06:11.978Z,100305.47
2024-05-09T10:08:39.640Z,100294.84
2024-05-09T10:11:06.828Z,100299.56
2024-05-09T10:13:34.949Z,100297.63
2024-05-09T10:16:09.119Z,100289.69
2024-05-09T10:18:40.320Z,100295.78
2024-05-09T10:21:17.605Z,100290.25
2024-05-09T10:23:56.039Z,100301.91
2024-05-09T10:26:36.962Z,100299.03
2024-05-09T10:29:18.038Z,100280.41
2024-05-09T10:31:46.781Z,100281.91
2024-05-09T10:34:21.240Z,100288.03
2024-05-09T10:36:52.899Z,100279.09
2024-05-09T10:39:21.042Z,100275.00
2024-05-09T10:41:49.310Z,100270.34
2024-05-09T10:44:17.153Z,100273.72
2024-05-09T10:46:45.300Z,100267.28
2024-05-09T10:49:15.174Z,100275.84
2024-05-09T10:51:42.426Z,100277.41
2024-05-09T10:54:09.130Z,100272.03
2024-05-09T10:56:35.745Z,100261.22
2024-05-09T10:59:05.783Z,100260.75
2024-05-09T11:01:32.714Z,100270.16
2024-05-09T11:03:59.708Z,100266.06
2024-05-09T11:06:26.636Z,100269.88
2024-05-09T11:08:53.649Z,100265.09
2024-05-09T11:11:20.680Z,100262.88
2024-05-09T11:13:47.436Z,100262.69
2024-05-09T11:16:20.150Z,100259.59
2024-05-09T11:18:58.243Z,100257.19
2024-05-09T11:21:25.553Z,100243.88
2024-05-09T11:23:52.826Z,100255.97
2024-05-09T11:26:21.522Z,100247.13
2024-05-09T11:28:48.790Z,100251.69
2024-05-09T11:31:15.619Z,100246.94
2024-05-09T11:33:44.655Z,100246.94
2024-05-09T11:36:11.790Z,100243.56
2024-05-09T11:38:38.602Z,100247.22
2024-05-09T11:41:06.013Z,100241.81
2024-05-09T11:43:33.364Z,100240.25
2024-05-09T11:46:01.055Z,100233.59
2024-05-09T11:48:28.236Z,100234.28
2024-05-09T11:50:55.729Z,100228.59
2024-05-09T11:53:22.822Z,100224.75
2024-05-09T11:55:49.776Z,100232.94
2024-05-09T11:58:18.227Z,100228.03
2024-05-09T12:00:46.102Z,100235.94
2024-05-09T12:03:13.172Z,100215.53
2024-05-09T12:05:40.016Z,100219.91
2024-05-09T12:08:07.332Z,100223.63
2024-05-09T12:10:35.999Z,100219.47
2024-05-09T12:13:05.678Z,100217.78
2024-05-09T12:15:36.284Z,100223.00
2024-05-09T12:18:05.010Z,100217.59
2024-05-09T12:20:37.506Z,100220.75
2024-05-09T12:23:08.004Z,100201.00
2024-05-09T12:25:36.407Z,100198.97
2024-05-09T12:28:03.521Z,100202.28
2024-05-09T12:30:36.661Z,100200.06
2024-05-09T12:33:08.403Z,100214.41
2024-05-09T12:35:35.548Z,100212.00
2024-05-09T12:38:02.664Z,100195.22
2024-05-09T12:40:36.234Z,100185.06
2024-05-09T12:43:07.232Z,100192.41
2024-05-09T12:45:34.565Z,100189.81
2024-05-09T12:48:01.363Z,100187.00
2024-05-09T12:50:32.674Z,100186.22
2024-05-09T12:53:02.095Z,100189.31
2024-05-09T12:55:33.966Z,100181.94
2024-05-09T12:58:08.278Z,100183.16
2024-05-09T13:00:35.410Z,100186.34
2024-05-09T13:03:02.348Z,100183.44
2024-05-09T13:05:29.697Z,100184.47
2024-05-09T13:07:57.210Z,100184.53
2024-05-09T13:10:31.713Z,100179.97
2024-05-09T13:13:01.044Z,100179.97
2024-05-09T13:15:28.723Z,100176.72
2024-05-09T13:18:02.181Z,100174.84
2024-05-09T13:20:35.720Z,100186.50
2024-05-09T13:23:05.495Z,100176.72
2024-05-09T13:25:35.018Z,100181.09
2024-05-09T13:28:03.022Z,100174.22
2024-05-09T13:30:38.531Z,100174.31
2024-05-09T13:33:14.266Z,100163.50
2024-05-09T13:35:46.886Z,100161.81
2024-05-09T13:38:16.791Z,100168.50
2024-05-09T13:40:43.548Z,100159.84
2024-05-09T13:43:10.382Z,100155.47
2024-05-09T13:45:37.190Z,100154.56
2024-05-09T13:48:06.688Z,100154.41
2024-05-09T13:50:36.185Z,100150.31
2024-05-09T13:53:08.217Z,100148.25
2024-05-09T13:55:38.362Z,100154.56
2024-05-09T13:58:05.957Z,100145.81
2024-05-09T14:00:43.799Z,100154.56
2024-05-09T14:03:15.897Z,100142.47
2024-05-09T14:05:43.292Z,100138.75
2024-05-09T14:08:10.274Z,100144.97
2024-05-09T14:10:43.522Z,100137.44
2024-05-09T14:13:11.145Z,100139.28
2024-05-09T14:15:38.034Z,100135.00
2024-05-09T14:18:05.272Z,100135.28
2024-05-09T14:20:32.707Z,100136.47
2024-05-09T14:23:00.765Z,100144.34
2024-05-09T14:25:32.438Z,100128.13
2024-05-09T14:28:00.091Z,100131.19
2024-05-09T14:30:34.772Z,100143.31
2024-05-09T14:33:05.855Z,100136.47
2024-05-09T14:35:33.369Z,100126.63
2024-05-09T14:38:00.040Z,100119.56
2024-05-09T14:40:37.056Z,100133.00
2024-05-09T14:43:08.726Z,100129.06
2024-05-09T14:45:35.828Z,100130.75
2024-05-09T14:48:03.979Z,100122.38
2024-05-09T14:50:36.213Z,100121.09
2024-05-09T14:53:07.380Z,100126.78
2024-05-09T14:55:37.033Z,100113.09
2024-05-09T14:58:07.764Z,100114.88
2024-05-09T15:00:39.420Z,100111.25
2024-05-09T15:03:08.704Z,100117.44
2024-05-09T15:05:35.580Z,100106.25
2024-05-09T15:08:07.125Z,100112.28
2024-05-09T15:10:36.240Z,100111.25
2024-05-09T15:13:04.536Z,100108.47
2024-05-09T15:15:31.618Z,100100.84
2024-05-09T15:17:58.943Z,100097.41
2024-05-09T15:20:33.126Z,100105.34
2024-05-09T15:23:02.809Z,100111.25
2024-05-09T15:25:29.806Z,100103.81
2024-05-09T15:27:56.796Z,100097.66
2024-05-09T15:30:30.890Z,100106.88
2024-05-09T15:33:00.891Z,100094.38
2024-05-09T15:35:28.007Z,100087.78
2024-05-09T15:37:55.108Z,100094.44
2024-05-09T15:40:31.038Z,100094.09
2024-05-09T15:43:05.746Z,100094.09
2024-05-09T15:45:32.855Z,100089.50
2024-05-09T15:48:00.399Z,100099.09
2024-05-09T15:50:36.303Z,100093.03
2024-05-09T15:53:06.831Z,100094.84
2024-05-09T15:55:34.822Z,100092.50
2024-05-09T15:58:03.068Z,100094.38
2024-05-09T16:00:37.525Z,100093.28
2024-05-09T16:03:08.641Z,100094.44
2024-05-09T16:05:37.685Z,100095.25
2024-05-09T16:08:05.745Z,100095.25
2024-05-09T16:10:34.342Z,100091.75
2024-05-09T16:13:02.662Z,100087.13
2024-05-09T16:15:30.276Z,100092.38
2024-05-09T16:17:57.335Z,100091.75
2024-05-09T16:22:54.543Z,100098.78
2024-05-09T16:25:21.432Z,100088.63
2024-05-09T16:27:48.481Z,100096.75
2024-05-09T16:30:24.149Z,100094.03
2024-05-09T16:32:55.215Z,100089.03
2024-05-09T16:35:22.066Z,100093.38
2024-05-09T16:37:48.978Z,100098.78
2024-05-09T16:40:24.946Z,100086.50
2024-05-09T16:43:02.978Z,100094.53
2024-05-09T16:45:29.770Z,100089.50
2024-05-09T16:47:56.910Z,100091.50
2024-05-09T16:50:29.382Z,100098.81
2024-05-09T16:53:00.110Z,100099.78
2024-05-09T16:55:27.231Z,100104.34
2024-05-09T16:57:55.407Z,100099.13
2024-05-09T17:00:31.561Z,100100.97
2024-05-09T17:03:07.189Z,100094.72
2024-05-09T17:05:36.123Z,100101.34
2024-05-09T17:08:03.462Z,100098.94
2024-05-09T17:10:33.632Z,100101.44
2024-05-09T17:13:06.711Z,100107.94
2024-05-09T17:15:35.375Z,100108.22
2024-05-09T17:18:03.336Z,100106.66
2024-05-09T17:20:34.491Z,100117.69
2024-05-09T17:23:04.571Z,100110.91
2024-05-09T17:25:31.944Z,100113.50
2024-05-09T17:28:05.439Z,100115.72
2024-05-09T17:30:37.641Z,100112.41
2024-05-09T17:33:08.000Z,100116.84
2024-05-09T17:35:36.172Z,100114.84
2024-05-09T17:38:03.395Z,100114.28
2024-05-09T17:40:34.951Z,100115.00
2024-05-09T17:43:04.929Z,100122.09
2024-05-09T17:45:32.419Z,100118.75
2024-05-09T17:47:59.851Z,100120.28
2024-05-09T17:50:34.743Z,100121.81
2024-05-09T17:53:03.807Z,100127.03
2024-05-09T17:55:30.535Z,100132.63
2024-05-09T17:57:57.469Z,100127.38
2024-05-09T18:00:33.749Z,100135.13
2024-05-09T18:03:06.394Z,100136.81
2024-05-09T18:05:35.221Z,100134.63
2024-05-09T18:08:02.363Z,100139.84
2024-05-09T18:10:35.506Z,100143.50
2024-05-09T18:13:06.254Z,100135.47
2024-05-09T18:15:33.771Z,100154.38
2024-05-09T18:18:01.612Z,100151.22
2024-05-09T18:20:37.735Z,100160.75
2024-05-09T18:23:10.481Z,100165.44
2024-05-09T18:25:37.359Z,100161.41
2024-05-09T18:28:04.499Z,100167.25
2024-05-09T18:30:34.656Z,100168.75
2024-05-09T18:33:04.752Z,100174.44
2024-05-09T18:35:32.542Z,100171.41
2024-05-09T18:37:59.337Z,100174.59
2024-05-09T18:40:33.005Z,100179.41
2024-05-09T18:43:03.585Z,100185.44
2024-05-09T18:45:30.635Z,100194.47
2024-05-09T18:47:57.970Z,100188.09
2024-05-09T18:50:32.526Z,100196.81
2024-05-09T18:53:06.280Z,100200.47
2024-05-09T18:55:33.326Z,100205.50
2024-05-09T18:58:00.455Z,100203.16
2024-05-09T19:00:34.343Z,100205.13
2024-05-09T19:03:06.224Z,100211.97
2024-05-09T19:05:36.066Z,100214.81
2024-05-09T19:08:03.354Z,100218.81
2024-05-09T19:10:34.337Z,100223.13
2024-05-09T19:13:06.704Z,100217.41
2024-05-09T19:15:37.670Z,100221.06
2024-05-09T19:18:04.935Z,100233.75
2024-05-09T19:20:35.959Z,100237.75
2024-05-09T19:23:06.613Z,100234.69
2024-05-09T19:25:34.607Z,100233.19
2024-05-09T19:28:01.662Z,100234.31
2024-05-09T19:30:37.119Z,100236.47
2024-05-09T19:33:08.211Z,100242.28
2024-05-09T19:35:35.278Z,100232.84
2024-05-09T19:38:02.392Z,100242.19
2024-05-09T19:40:32.203Z,100246.00
2024-05-09T19:43:02.332Z,100248.03
2024-05-09T19:45:29.939Z,100248.19
2024-05-09T19:47:57.034Z,100257.19
2024-05-09T19:50:32.355Z,100251.47
2024-05-09T19:53:07.239Z,100255.47
2024-05-09T19:55:34.692Z,100254.75
2024-05-09T19:58:04.909Z,100264.09
2024-05-09T20:00:40.278Z,100261.72
2024-05-09T20:03:10.015Z,100263.03
2024-05-09T20:05:37.719Z,100264.16
2024-05-09T20:08:05.438Z,100259.97
2024-05-09T20:10:34.635Z,100267.31
2024-05-09T20:13:03.582Z,100273.66
2024-05-09T20:15:31.732Z,100269.59
2024-05-09T20:17:58.845Z,100271.56
2024-05-09T20:20:33.769Z,100273.88
2024-05-09T20:23:08.050Z,100284.88
2024-05-09T20:25:34.747Z,100281.81
2024-05-09T20:28:01.535Z,100281.41
2024-05-09T20:30:32.420Z,100282.16
2024-05-09T20:33:04.433Z,100281.75
2024-05-09T20:35:32.588Z,100283.19
2024-05-09T20:37:59.764Z,100295.22
2024-05-09T20:40:32.622Z,100293.78
2024-05-09T20:43:03.139Z,100295.78
2024-05-09T20:45:29.863Z,100298.91
2024-05-09T20:47:57.549Z,100292.88
2024-05-09T20:50:35.096Z,100298.31
2024-05-09T20:53:05.844Z,100302.28
2024-05-09T20:55:32.530Z,100296.38
2024-05-09T20:57:59.391Z,100301.03
2024-05-09T21:00:34.959Z,100297.81
2024-05-09T21:03:07.228Z,100295.56
2024-05-09T21:05:34.998Z,100304.75
2024-05-09T21:08:02.351Z,100309.66
2024-05-09T21:10:32.832Z,100308.28
2024-05-09T21:13:02.256Z,100310.69
2024-05-09T21:15:29.801Z,100305.78
2024-05-09T21:17:56.557Z,100309.72
2024-05-09T21:20:29.090Z,100311.69
2024-05-09T21:22:58.638Z,100306.06
2024-05-09T21:25:25.733Z,100314.53
2024-05-09T21:27:52.967Z,100314.81
2024-05-09T21:30:31.629Z,100307.22
2024-05-09T21:33:09.527Z,100307.53
2024-05-09T21:35:37.527Z,100314.41
2024-05-09T21:38:04.648Z,100321.31
2024-05-09T21:40:34.849Z,100317.06
2024-05-09T21:43:03.730Z,100321.03
2024-05-09T21:45:30.664Z,100322.97
2024-05-09T21:47:57.604Z,100322.44
2024-05-09T21:50:32.191Z,100324.38
2024-05-09T21:53:05.877Z,100322.84
2024-05-09T21:55:32.661Z,100320.75
2024-05-09T21:57:59.497Z,100326.34
2024-05-09T22:00:34.507Z,100324.94
2024-05-09T22:03:04.666Z,100319.16
2024-05-09T22:05:31.814Z,100323.78
2024-05-09T22:07:58.655Z,100331.25
2024-05-09T22:10:31.088Z,100338.66
2024-05-09T22:13:01.495Z,100335.31
2024-05-09T22:15:28.416Z,100327.69
2024-05-09T22:17:56.674Z,100334.16
2024-05-09T22:20:32.913Z,100333.28
2024-05-09T22:23:04.205Z,100340.16
2024-05-09T22:25:32.135Z,100335.38
2024-05-09T22:28:00.035Z,100340.84
2024-05-09T22:30:34.990Z,100340.84
2024-05-09T22:33:06.324Z,100336.59
2024-05-09T22:35:33.331Z,100340.25
2024-05-09T22:38:00.431Z,100341.25
2024-05-09T22:42:56.795Z,100338.72
2024-05-09T22:45:23.538Z,100338.84
2024-05-09T22:47:50.436Z,100338.28
2024-05-09T22:50:26.219Z,100342.75
2024-05-09T22:52:53.920Z,100334.03
2024-05-09T22:55:20.700Z,100338.53
2024-05-09T22:57:47.455Z,100334.31
2024-05-09T23:00:16.047Z,100346.81
2024-05-09T23:02:43.335Z,100348.19
2024-05-09T23:05:10.277Z,100350.16
2024-05-09T23:07:37.121Z,100343.25
2024-05-09T23:10:06.620Z,100345.78
2024-05-09T23:12:38.953Z,100345.78
2024-05-09T23:15:06.238Z,100345.78
2024-05-09T23:17:33.842Z,100344.81
2024-05-09T23:20:00.622Z,100347.34
2024-05-09T23:22:27.661Z,100349.44
2024-05-09T23:24:54.422Z,100347.72
2024-05-09T23:27:21.520Z,100348.00
2024-05-09T23:29:48.242Z,100353.34
2024-05-09T23:32:14.939Z,100352.78
2024-05-09T23:34:41.688Z,100352.78
2024-05-09T23:37:10.950Z,100356.41
2024-05-09T23:39:37.702Z,100355.69
2024-05-09T23:42:04.798Z,100349.81
2024-05-09T23:44:31.351Z,100350.91
2024-05-09T23:46:58.019Z,100355.78
2024-05-09T23:49:24.799Z,100349.03
2024-05-09T23:51:51.523Z,100350.13
2024-05-09T23:54:18.227Z,100356.72
2024-05-09T23:56:45.354Z,100347.28
2024-05-09T23:59:11.902Z,100348.97
